Time;durP1;ratioP1;P1;durP2;ratioP2;P2;SDS_P1;SDS_P2;PMS_P1;PMS_P2;Temp;Humidity;BMP_temperature;BMP_pressure;BME280_temperature;BME280_humidity;BME280_pressure;Samples;Min_cycle;Max_cycle;Signal;HPM_P1;HPM_P2
2023/02/26 00:00:40;;;;;;;76.40;36.28;;;;;;;12.86;64.07;98865.56;5012980;28;20049;-78
2023/02/26 00:03:34;;;;;;;60.60;27.80;;;;;;;12.04;66.90;98865.84;5017992;28;20038;-78
2023/02/26 00:06:30;;;;;;;74.83;37.10;;;;;;;12.08;67.81;98858.50;4995313;28;20057;-78
2023/02/26 00:09:25;;;;;;;75.15;36.88;;;;;;;12.48;65.74;98864.03;4995026;28;20269;-78
2023/02/26 00:12:19;;;;;;;72.77;34.83;;;;;;;12.61;65.04;98870.78;4994910;28;20073;-79
2023/02/26 00:15:14;;;;;;;86.13;38.72;;;;;;;12.83;64.24;98858.94;4995022;28;20046;-78
2023/02/26 00:18:10;;;;;;;54.50;27.00;;;;;;;12.91;64.01;98864.44;4999009;28;20034;-78
2023/02/26 00:21:05;;;;;;;75.80;36.20;;;;;;;12.90;64.14;98855.47;5029644;28;20049;-79
2023/02/26 00:24:01;;;;;;;79.38;35.10;;;;;;;12.52;65.08;98874.97;5030553;28;20049;-76
2023/02/26 00:26:55;;;;;;;78.53;35.85;;;;;;;11.36;69.45;98873.03;5028149;28;20041;-78
2023/02/26 00:29:50;;;;;;;83.33;36.57;;;;;;;12.05;66.25;98864.66;5013011;28;20045;-77
2023/02/26 00:32:44;;;;;;;52.53;26.77;;;;;;;12.37;65.80;98865.84;5014173;28;20033;-78
2023/02/26 00:35:40;;;;;;;80.15;36.13;;;;;;;12.49;64.56;98875.72;5021688;28;20091;-78
2023/02/26 00:38:36;;;;;;;73.50;34.60;;;;;;;12.23;65.67;98876.59;5010048;28;20038;-78
2023/02/26 00:41:32;;;;;;;68.30;33.70;;;;;;;12.24;65.67;98867.25;5012057;28;20034;-78
2023/02/26 00:44:24;;;;;;;78.32;35.13;;;;;;;12.04;65.16;98866.59;5014169;28;20040;-78
2023/02/26 00:47:38;;;;;;;79.05;37.45;;;;;;;11.97;66.78;98858.34;5007861;28;20041;-78
2023/02/26 00:50:33;;;;;;;81.45;37.25;;;;;;;12.16;65.53;98862.88;5015233;28;20044;-78
2023/02/26 00:53:36;;;;;;;71.00;35.20;;;;;;;11.99;66.44;98859.53;5013801;28;20034;-78
2023/02/26 00:56:30;;;;;;;90.15;40.03;;;;;;;12.16;65.87;98862.88;5006506;28;20045;-78
2023/02/26 00:59:23;;;;;;;83.78;38.50;;;;;;;12.26;65.34;98854.03;5027983;28;20053;-77
2023/02/26 01:02:18;;;;;;;75.43;37.40;;;;;;;11.99;65.65;98850.59;4993814;28;20073;-77
2023/02/26 01:05:13;;;;;;;68.65;32.05;;;;;;;12.27;65.64;98850.16;5045703;28;20063;-78
2023/02/26 01:08:06;;;;;;;74.40;34.33;;;;;;;12.49;64.68;98851.19;5026867;28;20037;-78
2023/02/26 01:10:59;;;;;;;78.93;35.70;;;;;;;12.47;64.64;98850.78;5015437;28;20045;-77
2023/02/26 01:13:51;;;;;;;75.07;34.35;;;;;;;12.48;64.31;98839.50;5018001;28;20038;-77
2023/02/26 01:16:59;;;;;;;67.72;33.05;;;;;;;12.64;63.59;98829.16;5012333;28;20045;-78
2023/02/26 01:20:12;;;;;;;79.68;34.58;;;;;;;12.53;63.97;98835.66;5008886;28;20045;-78
2023/02/26 01:23:11;;;;;;;91.97;35.17;;;;;;;12.65;63.73;98838.09;5008071;28;20057;-78
2023/02/26 01:26:08;;;;;;;79.38;37.33;;;;;;;12.56;63.59;98834.88;5025802;28;20033;-77
2023/02/26 01:29:02;;;;;;;80.55;35.40;;;;;;;12.35;63.78;98830.00;5014156;28;20040;-78
2023/02/26 01:32:03;;;;;;;73.68;34.67;;;;;;;12.22;65.07;98831.41;5022401;28;20045;-77
2023/02/26 01:35:09;;;;;;;79.20;35.20;;;;;;;12.22;65.36;98834.13;5013383;28;20034;-78
2023/02/26 01:38:15;;;;;;;73.55;36.03;;;;;;;12.39;64.92;98847.19;5007053;28;20034;-78
2023/02/26 01:41:24;;;;;;;77.25;35.65;;;;;;;12.13;65.67;98837.16;5006323;28;20042;-77
2023/02/26 01:44:57;;;;;;;77.40;35.17;;;;;;;11.47;68.58;98832.38;5010730;28;20037;-78
2023/02/26 01:47:53;;;;;;;83.88;36.92;;;;;;;11.57;68.67;98846.13;5034011;28;20613;-78
2023/02/26 01:50:46;;;;;;;83.25;37.58;;;;;;;11.72;67.70;98828.06;5037650;28;20041;-78
2023/02/26 01:53:38;;;;;;;79.85;35.60;;;;;;;11.85;67.31;98840.31;5037633;28;20045;-78
2023/02/26 01:56:33;;;;;;;74.70;34.63;;;;;;;12.06;66.57;98834.34;5037941;28;20529;-78
2023/02/26 01:59:27;;;;;;;73.63;35.75;;;;;;;12.27;65.75;98831.09;5039031;28;20044;-78
2023/02/26 02:02:24;;;;;;;58.85;27.98;;;;;;;12.42;65.51;98836.31;5037628;28;20041;-78
2023/02/26 02:05:44;;;;;;;79.32;32.72;;;;;;;12.35;65.67;98838.16;5043520;28;20056;-78
2023/02/26 02:08:39;;;;;;;72.85;33.17;;;;;;;12.03;66.90;98832.38;5032488;28;20048;-78
2023/02/26 02:11:31;;;;;;;69.70;32.45;;;;;;;12.33;65.83;98832.31;5018359;28;20517;-78
2023/02/26 02:15:05;;;;;;;66.32;33.20;;;;;;;12.54;64.90;98837.22;5012484;28;20041;-78
2023/02/26 02:18:23;;;;;;;84.80;33.78;;;;;;;12.66;64.52;98837.72;4981813;28;20046;-78
2023/02/26 02:21:43;;;;;;;63.97;31.77;;;;;;;12.70;63.96;98840.47;5019194;28;20049;-79
2023/02/26 02:25:24;;;;;;;73.03;31.65;;;;;;;12.62;64.25;98842.38;5013220;28;20041;-78
2023/02/26 02:28:41;;;;;;;63.25;29.90;;;;;;;12.58;64.63;98838.81;5000840;28;20038;-78
2023/02/26 02:31:39;;;;;;;73.60;33.17;;;;;;;12.13;66.09;98842.63;5026496;28;20045;-77
2023/02/26 02:34:39;;;;;;;69.18;30.65;;;;;;;12.46;64.61;98841.81;5017918;28;20038;-78
2023/02/26 02:37:38;;;;;;;67.63;30.23;;;;;;;12.44;64.07;98838.69;5016830;28;20045;-78
2023/02/26 02:40:34;;;;;;;196.77;38.15;;;;;;;11.39;64.68;98852.44;5016193;28;20046;-78
2023/02/26 02:43:27;;;;;;;107.57;16.85;;;;;;;11.37;61.64;98879.25;5021815;28;20503;-79
2023/02/26 02:46:25;;;;;;;35.80;9.95;;;;;;;10.69;62.35;98888.97;5030747;28;20033;-79
2023/02/26 02:49:29;;;;;;;39.83;6.53;;;;;;;10.48;61.22;98894.00;5017332;28;20040;-79
2023/02/26 02:52:37;;;;;;;22.48;5.40;;;;;;;10.21;62.63;98901.22;5034055;28;20045;-78
2023/02/26 02:55:54;;;;;;;54.85;7.07;;;;;;;9.99;61.79;98906.53;5018953;28;20455;-78
2023/02/26 02:58:52;;;;;;;56.13;6.40;;;;;;;9.73;62.68;98909.84;5022673;28;20049;-79
2023/02/26 03:01:47;;;;;;;23.48;4.05;;;;;;;9.68;60.98;98923.69;5024483;28;20049;-79
2023/02/26 03:04:43;;;;;;;20.75;2.95;;;;;;;9.83;59.64;98936.44;5027628;28;20053;-79
2023/02/26 03:07:36;;;;;;;;;;;;;;;10.14;58.71;98954.59;5015048;28;20040;-78
2023/02/26 03:10:31;;;;;;;31.48;3.03;;;;;;;9.96;58.28;98947.97;5024598;28;19921;-78
2023/02/26 03:13:26;;;;;;;12.03;2.10;;;;;;;9.78;57.16;98948.38;5024212;28;20040;-78
2023/02/26 03:16:33;;;;;;;29.77;2.95;;;;;;;9.48;57.83;98947.25;5019996;28;20040;-78
2023/02/26 03:19:36;;;;;;;36.80;3.17;;;;;;;9.48;56.92;98944.53;5031698;28;20053;-78
2023/02/26 03:22:54;;;;;;;9.20;1.75;;;;;;;9.65;56.75;98955.00;5029375;28;20045;-78
2023/02/26 03:25:56;;;;;;;5.65;1.42;;;;;;;9.61;56.15;98959.59;5028080;28;20052;-78
2023/02/26 03:28:56;;;;;;;10.38;1.25;;;;;;;9.47;55.90;98969.31;5032142;28;20044;-78
2023/02/26 03:32:04;;;;;;;31.65;2.42;;;;;;;9.53;56.11;98957.06;5023552;28;20049;-79
2023/02/26 03:35:10;;;;;;;10.02;1.73;;;;;;;9.34;55.70;98945.00;5026154;28;20048;-78
2023/02/26 03:38:07;;;;;;;1.10;0.80;;;;;;;9.35;55.27;98967.47;5031394;28;20061;-78
2023/02/26 03:41:04;;;;;;;11.68;1.65;;;;;;;9.23;54.84;98970.28;5025726;28;20689;-78
2023/02/26 03:44:33;;;;;;;7.55;1.17;;;;;;;9.63;55.26;98992.59;5027428;28;20048;-78
2023/02/26 03:47:26;;;;;;;53.57;3.23;;;;;;;9.44;53.69;98993.31;5029908;28;20052;-78
2023/02/26 03:50:25;;;;;;;10.15;1.70;;;;;;;9.47;54.39;98997.22;5034574;28;20631;-78
2023/02/26 03:53:39;;;;;;;25.25;2.75;;;;;;;9.27;53.76;99019.97;5020979;28;20050;-77
2023/02/26 03:56:49;;;;;;;47.67;1.55;;;;;;;9.21;53.80;99011.28;5024015;28;20044;-77
2023/02/26 04:00:00;;;;;;;8.48;2.00;;;;;;;9.21;53.63;99010.50;5014958;28;20045;-77
2023/02/26 04:03:22;;;;;;;13.18;2.58;;;;;;;9.22;53.66;99012.88;5016336;28;20049;-77
2023/02/26 04:06:17;;;;;;;3.35;2.35;;;;;;;9.29;52.42;99021.19;5016299;28;20049;-77
2023/02/26 04:09:12;;;;;;;10.77;1.10;;;;;;;9.25;52.40;99014.88;5013987;28;20049;-77
2023/02/26 04:12:07;;;;;;;3.75;0.65;;;;;;;8.98;53.46;99008.38;5016691;28;20113;-77
2023/02/26 04:15:04;;;;;;;2.78;0.68;;;;;;;8.99;53.95;99009.91;5017419;28;20048;-77
2023/02/26 04:17:58;;;;;;;43.10;2.88;;;;;;;8.99;52.73;99014.56;5034556;28;20044;-77
2023/02/26 04:20:52;;;;;;;6.43;0.98;;;;;;;8.79;53.97;99018.25;5033657;28;20064;-77
2023/02/26 04:23:47;;;;;;;8.40;1.13;;;;;;;8.87;53.77;99022.75;5034357;28;20056;-77
2023/02/26 04:26:42;;;;;;;12.53;1.00;;;;;;;8.72;54.05;99002.59;5036573;28;20275;-76
2023/02/26 04:29:37;;;;;;;4.50;0.53;;;;;;;8.68;53.69;99019.91;5034437;28;20068;-77
2023/02/26 04:32:29;;;;;;;12.55;0.95;;;;;;;8.67;55.33;99054.31;5036123;28;20279;-77
2023/02/26 04:35:24;;;;;;;7.43;1.15;;;;;;;8.74;54.67;99034.75;5030172;28;20045;-77
2023/02/26 04:38:18;;;;;;;10.82;1.25;;;;;;;8.56;55.55;99018.00;5032729;28;20045;-76
2023/02/26 04:41:13;;;;;;;1.75;0.75;;;;;;;8.59;56.49;99031.63;5022128;28;20406;-77
2023/02/26 04:44:06;;;;;;;;;;;;;;;8.31;56.60;99024.59;5034585;28;20548;-77
2023/02/26 04:47:01;;;;;;;16.48;0.98;;;;;;;8.35;56.64;99014.66;5051486;28;20301;-78
2023/02/26 04:49:56;;;;;;;7.75;0.90;;;;;;;8.78;56.75;99025.63;5035254;28;20402;-77
2023/02/26 04:52:46;;;;;;;;;;;;;;;8.64;56.51;99019.78;5032950;28;20040;-77
2023/02/26 04:55:42;;;;;;;51.45;2.03;;;;;;;8.40;56.72;99023.34;5045572;28;20120;-77
2023/02/26 04:58:36;;;;;;;12.48;0.82;;;;;;;8.55;57.90;99029.97;5025498;28;20049;-77
2023/02/26 05:01:34;;;;;;;3.10;0.65;;;;;;;8.38;57.60;99024.84;5037148;28;20533;-78
2023/02/26 05:04:27;;;;;;;10.73;1.02;;;;;;;8.37;58.69;99028.66;5043279;28;20040;-79
2023/02/26 05:07:23;;;;;;;0.82;0.30;;;;;;;8.14;58.49;99010.16;5033313;28;20044;-77
2023/02/26 05:10:15;;;;;;;0.50;0.40;;;;;;;8.26;57.88;99012.06;5034118;28;20040;-79
2023/02/26 05:13:08;;;;;;;3.80;0.82;;;;;;;8.24;57.90;99030.56;5033858;28;20044;-78
2023/02/26 05:16:02;;;;;;;1.85;0.90;;;;;;;8.15;58.58;99038.03;5028012;28;20520;-79
2023/02/26 05:18:57;;;;;;;0.20;0.20;;;;;;;8.08;59.22;99045.91;5035643;28;20068;-78
2023/02/26 05:21:51;;;;;;;3.65;0.40;;;;;;;7.88;59.11;99052.22;5032217;28;20053;-78
2023/02/26 05:24:46;;;;;;;3.07;0.57;;;;;;;7.65;59.84;99030.25;5036645;28;20041;-78
2023/02/26 05:27:41;;;;;;;1.25;0.70;;;;;;;7.80;59.89;99047.72;5034884;28;20406;-79
2023/02/26 05:30:33;;;;;;;1.50;0.40;;;;;;;7.73;60.62;99046.34;5038543;28;20056;-78
2023/02/26 05:33:28;;;;;;;2.88;0.57;;;;;;;8.00;59.39;99054.94;5033366;28;20661;-78
2023/02/26 05:36:22;;;;;;;0.60;0.25;;;;;;;8.11;59.20;99072.31;5032273;28;20529;-78
2023/02/26 05:39:14;;;;;;;1.85;0.57;;;;;;;8.10;58.98;99052.56;5041525;28;20044;-80
2023/02/26 05:42:09;;;;;;;3.50;0.22;;;;;;;7.93;59.85;99041.19;5025085;28;20048;-79
2023/02/26 05:45:03;;;;;;;6.63;1.05;;;;;;;7.99;59.72;99026.28;5019238;28;20048;-79
2023/02/26 05:47:58;;;;;;;0.20;0.20;;;;;;;7.89;59.91;99026.75;5016845;28;20045;-79
2023/02/26 05:50:53;;;;;;;0.50;0.30;;;;;;;7.55;60.02;99036.09;5013579;28;20414;-80
2023/02/26 05:53:48;;;;;;;0.20;0.20;;;;;;;7.74;60.36;99041.75;5013137;28;20045;-77
2023/02/26 05:56:43;;;;;;;0.30;0.30;;;;;;;7.77;59.22;99057.31;5013787;28;20056;-77
2023/02/26 05:59:37;;;;;;;0.40;0.10;;;;;;;7.94;60.02;99046.25;5029049;28;20131;-78
2023/02/26 06:02:32;;;;;;;2.27;0.40;;;;;;;7.76;59.24;99073.88;5018773;28;20276;-78
2023/02/26 06:05:24;;;;;;;3.80;0.43;;;;;;;7.60;59.72;99047.47;5018669;28;20053;-79
2023/02/26 06:08:15;;;;;;;4.32;0.40;;;;;;;7.66;59.95;99062.38;5014183;28;20272;-78
2023/02/26 06:11:09;;;;;;;5.07;0.50;;;;;;;7.60;60.22;99069.13;5015661;28;20041;-78
2023/02/26 06:14:04;;;;;;;0.40;0.30;;;;;;;7.68;59.33;99097.97;5014490;28;20415;-78
2023/02/26 06:16:56;;;;;;;0.20;0.20;;;;;;;7.66;58.90;99118.38;5016506;28;20045;-77
2023/02/26 06:19:50;;;;;;;6.28;0.43;;;;;;;7.43;59.05;99111.78;5028723;28;20048;-78
2023/02/26 06:22:45;;;;;;;1.02;0.65;;;;;;;7.64;58.69;99123.34;5028774;28;20542;-78
2023/02/26 06:25:40;;;;;;;0.20;0.20;;;;;;;7.31;59.56;99113.31;5039729;28;20533;-78
2023/02/26 06:28:34;;;;;;;3.80;0.47;;;;;;;7.55;60.50;99130.75;5035910;28;20056;-78
2023/02/26 06:31:29;;;;;;;0.25;0.20;;;;;;;7.36;58.94;99123.16;5036264;28;20045;-81
2023/02/26 06:34:24;;;;;;;7.57;0.50;;;;;;;7.50;59.64;99131.75;5035561;28;20068;-78
2023/02/26 06:37:18;;;;;;;0.50;0.50;;;;;;;7.61;59.30;99132.91;5032459;28;20053;-77
2023/02/26 06:40:12;;;;;;;6.20;0.63;;;;;;;7.35;58.48;99132.38;5026841;28;20048;-79
2023/02/26 06:43:06;;;;;;;11.05;0.40;;;;;;;7.32;58.98;99128.41;5031303;28;20044;-79
2023/02/26 06:46:01;;;;;;;0.75;0.20;;;;;;;7.31;59.28;99145.00;5038371;28;20040;-78
2023/02/26 06:48:55;;;;;;;2.63;0.20;;;;;;;7.51;59.78;99146.06;5038367;28;20048;-78
2023/02/26 06:51:50;;;;;;;0.28;0.20;;;;;;;7.41;58.85;99155.41;5046602;28;20047;-78
2023/02/26 06:54:42;;;;;;;2.63;0.30;;;;;;;7.07;59.67;99152.97;5044038;28;20048;-78
2023/02/26 06:57:36;;;;;;;0.30;0.28;;;;;;;7.51;58.69;99170.41;5039448;28;20044;-78
2023/02/26 07:00:31;;;;;;;9.32;1.08;;;;;;;7.33;59.17;99164.34;5030172;28;20040;-77
2023/02/26 07:03:23;;;;;;;2.50;0.70;;;;;;;7.34;58.32;99174.06;5014620;28;20525;-77
2023/02/26 07:06:19;;;;;;;2.97;0.38;;;;;;;7.07;59.10;99179.97;5013245;28;20045;-78
2023/02/26 07:09:11;;;;;;;0.17;0.17;;;;;;;7.25;59.82;99203.06;5017028;28;20053;-78
2023/02/26 07:12:06;;;;;;;1.70;0.30;;;;;;;7.35;60.46;99218.91;5017795;28;20045;-78
2023/02/26 07:15:00;;;;;;;3.03;0.40;;;;;;;7.52;60.15;99207.13;5018893;28;20053;-78
2023/02/26 07:17:52;;;;;;;0.43;0.30;;;;;;;7.49;60.25;99224.81;5018371;28;20040;-78
2023/02/26 07:20:45;;;;;;;5.03;0.50;;;;;;;7.49;60.63;99222.13;5021361;28;20063;-78
2023/02/26 07:23:39;;;;;;;19.08;0.95;;;;;;;7.43;61.16;99219.94;5038112;28;20041;-79
2023/02/26 07:26:33;;;;;;;1.63;0.88;;;;;;;7.52;61.57;99224.16;5031644;28;20052;-77
2023/02/26 07:29:28;;;;;;;0.47;0.17;;;;;;;7.51;60.67;99238.03;5036179;28;20044;-78
2023/02/26 07:32:23;;;;;;;5.32;0.52;;;;;;;7.35;60.98;99245.94;5042995;28;20279;-77
2023/02/26 07:35:17;;;;;;;1.00;0.40;;;;;;;7.39;59.99;99257.69;5035494;28;20044;-77
2023/02/26 07:38:12;;;;;;;1.27;0.35;;;;;;;7.37;59.31;99286.94;5035568;28;20041;-77
2023/02/26 07:41:04;;;;;;;0.85;0.40;;;;;;;7.37;59.07;99294.25;5034669;28;20056;-77
2023/02/26 07:43:58;;;;;;;1.65;0.20;;;;;;;7.47;58.83;99308.19;5023953;28;20049;-77
2023/02/26 07:46:50;;;;;;;0.30;0.30;;;;;;;7.39;58.49;99317.16;5023649;28;20684;-77
2023/02/26 07:49:45;;;;;;;0.98;0.45;;;;;;;7.24;58.57;99315.84;5035061;28;20620;-77
2023/02/26 07:52:37;;;;;;;1.75;0.40;;;;;;;7.08;59.21;99332.94;5034720;28;20044;-76
2023/02/26 07:55:32;;;;;;;2.63;0.68;;;;;;;7.16;57.81;99329.41;5034931;28;20040;-77
2023/02/26 07:58:27;;;;;;;2.67;0.27;;;;;;;7.24;57.45;99342.06;5017190;28;20048;-77
2023/02/26 08:01:21;;;;;;;4.53;0.50;;;;;;;7.52;57.03;99332.34;5003143;28;20411;-77
2023/02/26 08:04:16;;;;;;;1.27;0.32;;;;;;;7.29;56.42;99339.97;5005552;28;20060;-77
2023/02/26 08:07:10;;;;;;;2.55;0.40;;;;;;;7.35;55.82;99324.34;5005124;28;20529;-77
2023/02/26 08:10:02;;;;;;;6.57;0.60;;;;;;;7.34;55.01;99330.88;5011726;28;20155;-77
2023/02/26 08:12:52;;;;;;;0.20;0.20;;;;;;;7.62;55.95;99341.97;5001390;28;20053;-77
2023/02/26 08:15:47;;;;;;;0.80;0.50;;;;;;;7.63;54.66;99367.91;5005354;28;20443;-77
2023/02/26 08:18:41;;;;;;;1.55;0.40;;;;;;;7.70;54.25;99370.91;5007901;28;20057;-77
2023/02/26 08:21:36;;;;;;;12.60;1.37;;;;;;;7.57;54.11;99375.44;4994089;28;20049;-79
2023/02/26 08:24:30;;;;;;;1.38;0.50;;;;;;;7.64;53.15;99383.81;4995147;28;20045;-77
2023/02/26 08:27:25;;;;;;;0.85;0.55;;;;;;;7.80;52.16;99394.06;4995270;28;20050;-74
2023/02/26 08:30:19;;;;;;;0.70;0.40;;;;;;;7.80;52.34;99397.56;4994100;28;20045;-74
2023/02/26 08:33:11;;;;;;;3.00;0.32;;;;;;;7.80;51.50;99397.56;4994930;28;20403;-74
2023/02/26 08:36:06;;;;;;;0.40;0.30;;;;;;;7.89;50.40;99405.63;4994828;28;20041;-74
2023/02/26 08:39:00;;;;;;;4.80;0.38;;;;;;;7.96;50.50;99408.59;4994667;28;20525;-74
2023/02/26 08:41:55;;;;;;;1.83;0.50;;;;;;;8.03;51.22;99422.41;5012250;28;20418;-74
2023/02/26 08:44:50;;;;;;;1.48;0.30;;;;;;;8.12;50.41;99426.66;5014468;28;20045;-74
2023/02/26 08:47:44;;;;;;;0.47;0.20;;;;;;;8.19;50.51;99423.38;5013945;28;20052;-74
2023/02/26 08:50:39;;;;;;;0.55;0.20;;;;;;;8.09;48.73;99423.78;5013846;28;20045;-74
2023/02/26 08:53:33;;;;;;;0.20;0.20;;;;;;;8.23;49.34;99432.44;5009476;28;20591;-79
2023/02/26 08:56:28;;;;;;;0.63;0.47;;;;;;;8.35;48.23;99439.88;5013969;28;20415;-75
2023/02/26 08:59:23;;;;;;;1.17;0.30;;;;;;;8.34;48.10;99440.97;5015944;28;20514;-75
2023/02/26 09:02:17;;;;;;;0.30;0.30;;;;;;;8.45;47.17;99442.16;5019634;28;20053;-74
2023/02/26 09:05:12;;;;;;;1.20;0.43;;;;;;;8.71;46.47;99442.72;5004237;28;20044;-75
2023/02/26 09:08:08;;;;;;;4.47;0.40;;;;;;;8.63;46.91;99445.53;5015557;28;21031;-74
2023/02/26 09:11:03;;;;;;;1.25;0.93;;;;;;;8.76;46.90;99447.16;5015171;28;20100;-74
2023/02/26 09:13:57;;;;;;;0.33;0.20;;;;;;;8.72;45.00;99454.38;5018241;28;20061;-74
2023/02/26 09:16:52;;;;;;;0.38;0.30;;;;;;;8.65;45.34;99459.50;5015372;28;20049;-75
2023/02/26 09:19:44;;;;;;;1.55;0.40;;;;;;;8.76;46.66;99463.41;5013810;28;20052;-75
2023/02/26 09:22:38;;;;;;;0.43;0.20;;;;;;;8.81;44.18;99468.63;5011803;28;20065;-75
2023/02/26 09:25:30;;;;;;;0.45;0.40;;;;;;;8.82;44.67;99472.91;5010656;28;20045;-74
2023/02/26 09:28:23;;;;;;;4.30;0.60;;;;;;;8.95;44.92;99479.94;5006686;28;20044;-74
2023/02/26 09:31:17;;;;;;;0.40;0.40;;;;;;;8.82;43.52;99472.91;5012279;28;20547;-74
2023/02/26 09:34:12;;;;;;;0.20;0.20;;;;;;;8.92;45.22;99473.28;5009563;28;20052;-73
2023/02/26 09:37:04;;;;;;;2.55;0.60;;;;;;;8.80;43.70;99470.53;5020258;28;20284;-74
2023/02/26 09:39:56;;;;;;;0.35;0.35;;;;;;;8.87;43.89;99480.84;5013539;28;20052;-74
2023/02/26 09:43:08;;;;;;;5.07;0.40;;;;;;;9.02;44.19;99472.06;5013891;28;20406;-76
2023/02/26 09:46:03;;;;;;;1.90;0.40;;;;;;;8.97;43.20;99475.00;5014412;28;20048;-73
2023/02/26 09:49:17;;;;;;;1.30;0.50;;;;;;;9.21;43.78;99487.81;5032344;28;20053;-74
2023/02/26 09:52:33;;;;;;;0.70;0.50;;;;;;;9.42;44.48;99486.63;5009139;28;20399;-74
2023/02/26 09:55:47;;;;;;;2.40;0.40;;;;;;;9.38;43.67;99496.56;5026132;28;20044;-74
2023/02/26 09:58:42;;;;;;;4.93;0.60;;;;;;;9.63;44.51;99483.81;5009613;28;20556;-74
2023/02/26 10:01:50;;;;;;;0.43;0.28;;;;;;;9.45;43.57;99490.56;5012236;28;20048;-75
2023/02/26 10:05:20;;;;;;;4.88;0.40;;;;;;;9.69;43.56;99487.09;5089127;27;20381;-77
2023/02/26 10:08:18;;;;;;;0.47;0.40;;;;;;;9.67;43.10;99486.63;5080249;28;20510;-73
2023/02/26 10:11:26;;;;;;;2.35;0.50;;;;;;;9.51;42.71;99480.28;5081497;28;20233;-73
2023/02/26 10:14:35;;;;;;;0.68;0.30;;;;;;;9.53;42.32;99489.69;5068564;28;20024;-76
2023/02/26 10:18:06;;;;;;;0.90;0.50;;;;;;;9.43;42.55;99480.06;5063828;28;20037;-73
2023/02/26 10:21:01;;;;;;;1.77;1.13;;;;;;;9.45;43.37;99485.13;5068733;28;20040;-75
2023/02/26 10:24:33;;;;;;;3.53;0.40;;;;;;;9.49;41.66;99491.50;5068189;28;20044;-76
2023/02/26 10:27:25;;;;;;;0.57;0.50;;;;;;;9.36;41.41;99490.69;5051247;28;20041;-74
2023/02/26 10:30:26;;;;;;;0.82;0.40;;;;;;;9.63;43.92;99497.38;5064142;28;20048;-76
2023/02/26 10:33:37;;;;;;;0.60;0.40;;;;;;;9.83;43.42;99490.25;5061755;28;20040;-76
2023/02/26 10:36:36;;;;;;;3.70;0.50;;;;;;;10.06;43.02;99487.84;5067749;28;20040;-77
2023/02/26 10:39:47;;;;;;;0.80;0.40;;;;;;;9.84;40.51;99489.13;5063269;28;20048;-78
2023/02/26 10:43:02;;;;;;;3.92;0.63;;;;;;;9.83;41.69;99495.69;5064268;28;20538;-77
2023/02/26 10:46:37;;;;;;;0.98;0.43;;;;;;;9.68;40.74;99491.72;5068288;28;20040;-77
2023/02/26 10:49:48;;;;;;;0.65;0.50;;;;;;;9.63;39.29;99494.66;5070543;28;20040;-77
2023/02/26 10:52:40;;;;;;;6.05;1.13;;;;;;;9.75;39.97;99491.94;5066807;28;20150;-77
2023/02/26 10:55:44;;;;;;;5.80;1.27;;;;;;;9.79;41.54;99502.94;5063930;28;20040;-76
2023/02/26 10:58:39;;;;;;;1.42;0.75;;;;;;;9.99;39.32;99496.59;5064233;28;20032;-77
2023/02/26 11:01:31;;;;;;;1.67;1.00;;;;;;;9.93;40.26;99508.81;5074528;28;20033;-76
2023/02/26 11:04:27;;;;;;;1.05;0.90;;;;;;;9.75;39.24;99502.03;5055909;28;20037;-76
2023/02/26 11:07:22;;;;;;;1.00;0.50;;;;;;;9.80;38.68;99504.53;5068919;28;20048;-77
2023/02/26 11:10:21;;;;;;;1.30;0.85;;;;;;;9.73;38.34;99507.00;5069030;28;20047;-77
2023/02/26 11:13:14;;;;;;;1.08;0.70;;;;;;;9.69;38.30;99503.38;5060754;28;20029;-76
2023/02/26 11:16:12;;;;;;;1.92;1.38;;;;;;;9.96;36.89;99502.69;5054785;28;20059;-76
2023/02/26 11:19:06;;;;;;;2.15;0.98;;;;;;;9.64;37.68;99503.59;5057110;28;20051;-76
2023/02/26 11:22:01;;;;;;;1.25;0.52;;;;;;;9.58;37.25;99511.19;5054213;28;20492;-76
2023/02/26 11:24:53;;;;;;;0.73;0.60;;;;;;;9.68;37.72;99512.66;5054364;28;20033;-76
2023/02/26 11:27:49;;;;;;;10.07;0.80;;;;;;;9.61;36.48;99513.19;5054322;28;20316;-76
2023/02/26 11:30:48;;;;;;;1.40;0.70;;;;;;;9.79;36.09;99519.22;5052893;28;20051;-76
2023/02/26 11:33:44;;;;;;;2.78;0.73;;;;;;;9.85;36.18;99520.59;5050079;28;20044;-76
2023/02/26 11:36:41;;;;;;;1.63;0.93;;;;;;;9.77;35.33;99505.97;5053994;28;20407;-76
2023/02/26 11:39:37;;;;;;;1.13;0.60;;;;;;;9.73;36.00;99515.16;5053413;28;20416;-76
2023/02/26 11:42:28;;;;;;;0.55;0.50;;;;;;;9.83;36.76;99520.13;5055020;28;20236;-77
2023/02/26 11:45:23;;;;;;;2.83;1.27;;;;;;;10.02;36.64;99516.81;5033053;28;20409;-76
2023/02/26 11:48:21;;;;;;;1.58;1.02;;;;;;;9.98;35.72;99510.50;5034030;28;20413;-76
2023/02/26 11:51:15;;;;;;;0.98;0.70;;;;;;;9.68;34.60;99501.78;5035510;28;20048;-76
2023/02/26 11:54:23;;;;;;;0.50;0.40;;;;;;;9.81;35.22;99516.94;5049901;28;20029;-76
2023/02/26 11:57:25;;;;;;;0.88;0.60;;;;;;;9.59;34.54;99514.69;5047035;28;20041;-76
2023/02/26 12:00:30;;;;;;;1.27;0.73;;;;;;;9.37;34.60;99515.88;5046814;28;20043;-76
2023/02/26 12:03:30;;;;;;;2.50;0.70;;;;;;;9.43;35.58;99517.25;5047665;28;20052;-77
2023/02/26 12:06:28;;;;;;;1.40;0.90;;;;;;;9.59;34.92;99504.63;5053686;28;20041;-76
2023/02/26 12:09:20;;;;;;;0.88;0.57;;;;;;;9.37;34.37;99507.75;5053621;28;20049;-76
2023/02/26 12:12:45;;;;;;;3.92;0.77;;;;;;;9.48;34.43;99514.31;5047916;28;20507;-76
2023/02/26 12:16:00;;;;;;;0.60;0.60;;;;;;;9.54;33.52;99512.19;5049742;28;20515;-76
2023/02/26 12:19:03;;;;;;;5.07;0.73;;;;;;;9.64;34.18;99514.47;5053182;28;20037;-76
2023/02/26 12:22:22;;;;;;;1.15;0.60;;;;;;;9.62;33.82;99524.84;5054883;28;20060;-77
2023/02/26 12:25:33;;;;;;;0.90;0.70;;;;;;;9.38;33.08;99520.97;5053221;28;20044;-76
2023/02/26 12:29:03;;;;;;;2.55;0.65;;;;;;;9.35;33.89;99527.06;5053767;28;20052;-76
2023/02/26 12:32:10;;;;;;;0.85;0.60;;;;;;;9.54;34.23;99533.91;5052774;28;20069;-76
2023/02/26 12:35:19;;;;;;;2.15;1.00;;;;;;;9.33;32.84;99539.41;5051355;28;20036;-76
2023/02/26 12:38:21;;;;;;;3.20;0.73;;;;;;;9.23;33.04;99534.41;5045727;28;20404;-76
2023/02/26 12:41:33;;;;;;;1.05;0.50;;;;;;;9.19;34.22;99534.28;5045799;28;20618;-76
2023/02/26 12:44:56;;;;;;;0.60;0.50;;;;;;;9.30;34.57;99531.91;5078785;28;20062;-76
2023/02/26 12:48:11;;;;;;;2.85;0.98;;;;;;;9.47;35.92;99528.22;5049732;28;20071;-76
2023/02/26 12:51:33;;;;;;;1.35;0.80;;;;;;;9.08;34.13;99527.69;5052486;28;20040;-76
2023/02/26 12:54:41;;;;;;;0.40;0.40;;;;;;;9.21;35.32;99542.84;5061639;28;20052;-76
2023/02/26 12:58:00;;;;;;;4.35;0.60;;;;;;;9.23;35.01;99540.63;5051754;28;20427;-76
2023/02/26 13:01:07;;;;;;;0.63;0.47;;;;;;;8.97;34.83;99535.44;5050543;28;20128;-76
2023/02/26 13:04:41;;;;;;;2.20;0.88;;;;;;;9.30;35.89;99534.63;5052045;28;20036;-77
2023/02/26 13:07:53;;;;;;;0.35;0.30;;;;;;;9.28;34.75;99548.53;5052456;28;20064;-76
2023/02/26 13:11:04;;;;;;;1.83;0.63;;;;;;;9.52;34.82;99547.78;5049617;28;20044;-76
2023/02/26 13:14:35;;;;;;;0.52;0.35;;;;;;;9.36;34.09;99555.78;5052030;28;20044;-76
2023/02/26 13:17:49;;;;;;;1.48;0.63;;;;;;;9.24;34.36;99561.19;5052001;28;20052;-76
2023/02/26 13:20:46;;;;;;;2.72;0.40;;;;;;;9.11;35.12;99573.09;5043798;28;20040;-76
2023/02/26 13:23:46;;;;;;;1.00;0.52;;;;;;;9.07;35.08;99577.63;5051704;28;20519;-76
2023/02/26 13:26:41;;;;;;;0.95;0.50;;;;;;;9.12;36.40;99563.06;5052205;28;20056;-76
2023/02/26 13:29:42;;;;;;;0.55;0.40;;;;;;;8.98;35.52;99566.06;5051019;28;20510;-76
2023/02/26 13:32:38;;;;;;;0.47;0.40;;;;;;;9.11;35.08;99569.59;5051599;28;20049;-76
2023/02/26 13:35:33;;;;;;;1.13;0.80;;;;;;;8.94;34.84;99574.03;5051870;28;20044;-76
2023/02/26 13:38:46;;;;;;;2.45;0.60;;;;;;;9.04;35.50;99569.38;5051649;28;20051;-76
2023/02/26 13:41:59;;;;;;;1.55;0.50;;;;;;;8.92;35.59;99567.38;5047808;28;20040;-76
2023/02/26 13:45:18;;;;;;;7.93;0.90;;;;;;;9.26;35.04;99582.53;5049818;28;20040;-76
2023/02/26 13:48:24;;;;;;;2.70;0.40;;;;;;;9.12;35.12;99593.69;5044346;28;20063;-76
2023/02/26 13:51:37;;;;;;;0.55;0.47;;;;;;;9.04;34.89;99586.41;5051523;28;20048;-76
2023/02/26 13:54:49;;;;;;;1.38;0.30;;;;;;;8.96;34.89;99595.41;5050797;28;20051;-76
2023/02/26 13:57:57;;;;;;;1.02;0.40;;;;;;;8.98;35.84;99604.03;5064484;28;20052;-75
2023/02/26 14:00:56;;;;;;;0.60;0.47;;;;;;;9.00;35.08;99612.59;5049579;28;20040;-76
2023/02/26 14:04:08;;;;;;;1.73;0.60;;;;;;;8.77;35.36;99603.22;5051172;28;20048;-76
2023/02/26 14:07:15;;;;;;;0.85;0.73;;;;;;;8.77;36.52;99609.44;5051188;28;20040;-76
2023/02/26 14:10:24;;;;;;;0.80;0.30;;;;;;;8.82;36.42;99611.94;5045997;28;20326;-77